createdAt,value
2023-05-19T00:01:17.244Z,8.35
2023-05-19T00:03:57.937Z,5.28
2023-05-19T00:06:32.715Z,6.75
2023-05-19T00:09:04.862Z,6.90
2023-05-19T00:11:32.579Z,3.42
2023-05-19T00:14:04.452Z,5.50
2023-05-19T00:16:32.526Z,3.40
2023-05-19T00:19:02.191Z,6.88
2023-05-19T00:21:30.784Z,5.10
2023-05-19T00:23:58.430Z,11.68
2023-05-19T00:26:27.115Z,9.32
2023-05-19T00:28:54.512Z,4.50
2023-05-19T00:31:21.892Z,7.07
2023-05-19T00:33:49.228Z,7.68
2023-05-19T00:36:17.003Z,5.38
2023-05-19T00:38:44.372Z,4.10
2023-05-19T00:41:12.107Z,6.07
2023-05-19T00:43:39.895Z,7.57
2023-05-19T00:46:07.782Z,5.07
2023-05-19T00:48:35.420Z,8.10
2023-05-19T00:51:04.970Z,4.18
2023-05-19T00:53:33.802Z,5.13
2023-05-19T00:56:02.313Z,4.25
2023-05-19T00:58:31.353Z,4.90
2023-05-19T01:01:09.061Z,3.63
2023-05-19T01:03:36.762Z,3.45
2023-05-19T01:06:08.247Z,4.82
2023-05-19T01:08:38.003Z,3.75
2023-05-19T01:11:07.147Z,6.85
2023-05-19T01:13:35.715Z,4.90
2023-05-19T01:16:09.543Z,4.53
2023-05-19T01:18:56.694Z,3.95
2023-05-19T01:21:48.125Z,4.57
2023-05-19T01:24:34.848Z,7.03
2023-05-19T01:27:26.185Z,3.15
2023-05-19T01:30:18.776Z,4.90
2023-05-19T01:35:14.826Z,6.85
2023-05-19T01:37:43.361Z,4.30
2023-05-19T01:40:11.427Z,4.30
2023-05-19T01:42:42.079Z,4.88
2023-05-19T01:45:10.870Z,5.22
2023-05-19T01:47:43.536Z,6.57
2023-05-19T01:50:11.348Z,6.70
2023-05-19T01:52:38.794Z,4.78
2023-05-19T01:55:06.968Z,3.92
2023-05-19T01:57:53.617Z,6.65
2023-05-19T02:00:41.101Z,5.10
2023-05-19T02:03:08.618Z,3.72
2023-05-19T02:05:46.084Z,6.25
2023-05-19T02:08:33.021Z,4.68
2023-05-19T02:11:22.490Z,6.90
2023-05-19T02:13:53.316Z,5.97
2023-05-19T02:16:23.609Z,4.53
2023-05-19T02:18:52.367Z,4.22
2023-05-19T02:21:23.379Z,4.43
2023-05-19T02:23:51.748Z,3.83
2023-05-19T02:26:22.111Z,5.22
2023-05-19T02:28:49.752Z,4.60
2023-05-19T02:31:17.752Z,3.60
2023-05-19T02:33:45.169Z,4.07
2023-05-19T02:36:14.937Z,6.10
2023-05-19T02:38:42.574Z,5.78
2023-05-19T02:41:10.126Z,4.43
2023-05-19T02:43:37.873Z,3.13
2023-05-19T02:46:06.169Z,3.25
2023-05-19T02:48:33.900Z,6.10
2023-05-19T02:51:01.407Z,10.50
2023-05-19T02:53:28.819Z,4.85
2023-05-19T02:55:56.482Z,3.63
2023-05-19T02:58:24.122Z,7.03
2023-05-19T03:00:52.570Z,7.40
2023-05-19T03:03:20.651Z,12.27
2023-05-19T03:05:49.180Z,17.10
2023-05-19T03:08:17.248Z,25.88
2023-05-19T03:10:46.960Z,42.60
2023-05-19T03:13:14.922Z,40.45
2023-05-19T03:15:42.800Z,20.23
2023-05-19T03:18:10.386Z,19.90
2023-05-19T03:20:42.644Z,22.40
2023-05-19T03:25:37.303Z,4.13
2023-05-19T03:28:07.895Z,10.25
2023-05-19T03:30:35.584Z,6.43
2023-05-19T03:33:03.373Z,4.35
2023-05-19T03:35:31.394Z,17.67
2023-05-19T03:37:59.213Z,7.50
2023-05-19T03:40:28.286Z,3.85
2023-05-19T03:42:56.578Z,5.90
2023-05-19T03:45:24.302Z,15.18
2023-05-19T03:47:52.360Z,10.90
2023-05-19T03:50:20.633Z,21.27
2023-05-19T03:52:49.744Z,10.65
2023-05-19T03:55:17.532Z,9.63
2023-05-19T03:57:45.382Z,4.15
2023-05-19T04:00:13.910Z,8.38
2023-05-19T04:02:41.715Z,12.80
2023-05-19T04:05:09.779Z,13.13
2023-05-19T04:07:37.703Z,4.13
2023-05-19T04:10:05.966Z,5.95
2023-05-19T04:12:33.249Z,6.95
2023-05-19T04:15:00.630Z,8.73
2023-05-19T04:17:28.107Z,15.98
2023-05-19T04:19:55.319Z,10.70
2023-05-19T04:22:22.615Z,5.65
2023-05-19T04:24:51.773Z,9.70
2023-05-19T04:27:18.979Z,8.50
2023-05-19T04:29:48.505Z,10.52
2023-05-19T04:32:17.981Z,16.42
2023-05-19T04:34:47.865Z,9.32
2023-05-19T04:37:16.477Z,7.85
2023-05-19T04:39:45.413Z,8.85
2023-05-19T04:42:13.437Z,10.10
2023-05-19T04:44:42.919Z,4.63
2023-05-19T04:47:10.730Z,6.25
2023-05-19T04:49:39.168Z,7.15
2023-05-19T04:52:13.485Z,12.50
2023-05-19T04:54:41.992Z,5.63
2023-05-19T04:57:10.737Z,7.43
2023-05-19T04:59:38.152Z,7.63
2023-05-19T05:02:05.645Z,4.43
2023-05-19T05:04:33.030Z,6.20
2023-05-19T05:07:00.112Z,5.30
2023-05-19T05:09:27.227Z,5.55
2023-05-19T05:11:54.691Z,7.20
2023-05-19T05:14:24.405Z,4.32
2023-05-19T05:16:52.144Z,6.95
2023-05-19T05:19:19.657Z,7.20
2023-05-19T05:21:47.468Z,6.03
2023-05-19T05:24:15.233Z,7.10
2023-05-19T05:26:44.110Z,4.63
2023-05-19T05:29:11.248Z,5.60
2023-05-19T05:31:38.414Z,5.25
2023-05-19T05:34:06.836Z,4.20
2023-05-19T05:36:36.379Z,8.60
2023-05-19T05:39:03.962Z,3.22
2023-05-19T05:41:35.536Z,10.38
2023-05-19T05:44:03.281Z,3.70
2023-05-19T05:46:33.477Z,8.73
2023-05-19T05:49:01.136Z,8.55
2023-05-19T05:51:28.558Z,4.43
2023-05-19T05:53:56.431Z,2.83
2023-05-19T05:56:23.722Z,3.80
2023-05-19T05:58:50.924Z,5.53
2023-05-19T06:01:18.156Z,6.43
2023-05-19T06:03:45.415Z,9.05
2023-05-19T06:06:13.182Z,5.47
2023-05-19T06:08:40.152Z,3.47
2023-05-19T06:11:09.278Z,7.45
2023-05-19T06:13:36.985Z,6.75
2023-05-19T06:16:04.277Z,7.95
2023-05-19T06:18:31.290Z,7.32
2023-05-19T06:20:58.411Z,8.35
2023-05-19T06:23:26.980Z,2.42
2023-05-19T06:25:54.112Z,3.05
2023-05-19T06:28:21.151Z,3.95
2023-05-19T06:30:48.209Z,6.20
2023-05-19T06:33:15.201Z,6.32
2023-05-19T06:35:42.190Z,7.38
2023-05-19T06:38:09.225Z,9.68
2023-05-19T06:40:37.241Z,4.13
2023-05-19T06:43:05.077Z,7.85
2023-05-19T06:45:32.350Z,9.23
2023-05-19T06:47:59.600Z,6.22
2023-05-19T06:50:26.895Z,7.65
2023-05-19T06:52:53.909Z,4.78
2023-05-19T06:55:21.307Z,4.75
2023-05-19T06:57:48.200Z,6.35
2023-05-19T07:00:19.269Z,4.78
2023-05-19T07:02:50.055Z,5.82
2023-05-19T07:05:17.451Z,6.00
2023-05-19T07:07:44.526Z,8.15
2023-05-19T07:10:14.150Z,5.32
2023-05-19T07:12:41.537Z,4.63
2023-05-19T07:15:08.885Z,5.00
2023-05-19T07:17:36.204Z,9.27
2023-05-19T07:20:06.763Z,5.35
2023-05-19T07:22:37.063Z,2.97
2023-05-19T07:25:04.254Z,4.15
2023-05-19T07:27:31.360Z,7.97
2023-05-19T07:29:58.753Z,3.33
2023-05-19T07:32:26.063Z,5.25
2023-05-19T07:34:53.195Z,7.63
2023-05-19T07:37:20.159Z,5.88
2023-05-19T07:39:47.172Z,7.05
2023-05-19T07:42:14.203Z,4.97
2023-05-19T07:44:41.277Z,4.28
2023-05-19T07:47:08.269Z,3.00
2023-05-19T07:49:35.350Z,6.22
2023-05-19T07:52:03.623Z,3.25
2023-05-19T07:54:30.713Z,8.38
2023-05-19T07:56:57.743Z,7.05
2023-05-19T07:59:24.736Z,11.00
2023-05-19T08:01:52.358Z,7.28
2023-05-19T08:04:19.428Z,3.15
2023-05-19T08:06:46.664Z,8.25
2023-05-19T08:09:13.664Z,11.55
2023-05-19T08:11:40.702Z,4.03
2023-05-19T08:14:07.832Z,5.75
2023-05-19T08:16:34.876Z,13.45
2023-05-19T08:19:04.132Z,4.82
2023-05-19T08:21:34.738Z,3.67
2023-05-19T08:24:02.282Z,9.00
2023-05-19T08:26:29.455Z,7.65
2023-05-19T08:28:56.626Z,6.32
2023-05-19T08:31:25.143Z,8.52
2023-05-19T08:33:52.407Z,5.55
2023-05-19T08:36:19.587Z,4.47
2023-05-19T08:38:46.654Z,7.47
2023-05-19T08:41:13.762Z,9.68
2023-05-19T08:43:40.749Z,5.25
2023-05-19T08:46:08.444Z,7.25
2023-05-19T08:48:35.940Z,3.35
2023-05-19T08:51:23.781Z,5.15
2023-05-19T08:53:53.006Z,3.35
2023-05-19T08:56:25.042Z,6.05
2023-05-19T09:01:20.669Z,4.30
2023-05-19T09:03:50.147Z,6.38
2023-05-19T09:06:17.568Z,3.58
2023-05-19T09:08:48.368Z,4.85
2023-05-19T09:11:15.356Z,6.13
2023-05-19T09:13:42.453Z,8.38
2023-05-19T09:16:09.678Z,7.47
2023-05-19T09:18:40.074Z,7.43
2023-05-19T09:21:07.642Z,6.80
2023-05-19T09:23:35.162Z,5.28
2023-05-19T09:26:08.508Z,4.93
2023-05-19T09:28:37.043Z,5.90
2023-05-19T09:31:10.556Z,5.80
2023-05-19T09:33:46.305Z,5.25
2023-05-19T09:36:13.966Z,15.88
2023-05-19T09:38:41.589Z,11.80
2023-05-19T09:41:09.819Z,3.15
2023-05-19T09:43:37.381Z,6.72
2023-05-19T09:46:06.194Z,5.72
2023-05-19T09:48:34.801Z,7.43
2023-05-19T09:51:03.234Z,9.20
2023-05-19T09:53:32.589Z,4.97
2023-05-19T09:56:02.136Z,5.32
2023-05-19T09:58:36.694Z,9.85
2023-05-19T10:01:05.477Z,3.80
2023-05-19T10:03:33.983Z,7.00
2023-05-19T10:06:05.290Z,3.97
2023-05-19T10:08:34.370Z,5.03
2023-05-19T10:11:01.793Z,6.80
2023-05-19T10:13:30.196Z,5.65
2023-05-19T10:15:59.916Z,9.43
2023-05-19T10:18:29.795Z,6.68
2023-05-19T10:20:58.287Z,13.18
2023-05-19T10:23:26.485Z,4.75
2023-05-19T10:25:56.911Z,8.30
2023-05-19T10:28:36.029Z,3.17
2023-05-19T10:31:07.293Z,3.28
2023-05-19T10:33:59.146Z,3.85
2023-05-19T10:36:38.399Z,10.43
2023-05-19T10:39:08.564Z,7.82
2023-05-19T10:41:44.007Z,4.35
2023-05-19T10:44:39.236Z,5.10
2023-05-19T10:47:12.375Z,5.85
2023-05-19T10:49:40.266Z,3.80
2023-05-19T10:52:27.282Z,4.85
2023-05-19T10:54:55.029Z,6.28
2023-05-19T10:57:30.740Z,7.53
2023-05-19T10:59:58.631Z,14.35
2023-05-19T11:02:41.355Z,5.10
2023-05-19T11:05:17.089Z,8.10
2023-05-19T11:08:06.222Z,5.80
2023-05-19T11:10:36.723Z,10.02
2023-05-19T11:13:06.458Z,7.65
2023-05-19T11:15:39.569Z,5.40
2023-05-19T11:18:06.716Z,5.32
2023-05-19T11:20:39.447Z,4.85
2023-05-19T11:23:07.543Z,9.55
2023-05-19T11:25:51.747Z,6.13
2023-05-19T11:28:20.868Z,5.68
2023-05-19T11:30:52.507Z,6.53
2023-05-19T11:33:21.139Z,5.72
2023-05-19T11:35:50.000Z,2.90
2023-05-19T11:38:22.391Z,4.97
2023-05-19T11:40:53.101Z,3.58
2023-05-19T11:43:22.775Z,2.65
2023-05-19T11:45:50.044Z,3.83
2023-05-19T11:48:17.805Z,6.10
2023-05-19T11:50:44.912Z,9.43
2023-05-19T11:53:16.518Z,6.13
2023-05-19T11:55:46.358Z,4.00
2023-05-19T11:58:13.859Z,6.25
2023-05-19T12:00:42.785Z,9.13
2023-05-19T12:03:10.459Z,4.95
2023-05-19T12:05:43.793Z,3.80
2023-05-19T12:08:12.160Z,4.07
2023-05-19T12:10:40.231Z,5.50
2023-05-19T12:13:11.237Z,4.72
2023-05-19T12:15:39.291Z,7.90
2023-05-19T12:18:06.998Z,3.97
2023-05-19T12:20:36.307Z,5.13
2023-05-19T12:23:07.911Z,3.75
2023-05-19T12:25:35.127Z,7.80
2023-05-19T12:28:06.021Z,8.05
2023-05-19T12:30:35.135Z,9.20
2023-05-19T12:33:05.589Z,3.55
2023-05-19T12:35:36.513Z,3.35
2023-05-19T12:38:06.937Z,2.70
2023-05-19T12:40:35.959Z,4.65
2023-05-19T12:43:04.259Z,7.85
2023-05-19T12:45:39.126Z,4.28
2023-05-19T12:48:11.386Z,7.55
2023-05-19T12:53:10.210Z,2.55
2023-05-19T12:55:44.613Z,5.05
2023-05-19T12:58:12.599Z,4.75
2023-05-19T13:00:45.479Z,6.47
2023-05-19T13:03:19.914Z,2.28
2023-05-19T13:05:51.033Z,3.50
2023-05-19T13:08:23.371Z,3.63
2023-05-19T13:10:50.690Z,5.43
2023-05-19T13:13:18.228Z,5.32
2023-05-19T13:15:46.449Z,2.33
2023-05-19T13:18:14.089Z,5.80
2023-05-19T13:20:42.922Z,5.57
2023-05-19T13:23:13.957Z,1.88
2023-05-19T13:25:42.386Z,3.35
2023-05-19T13:28:10.366Z,5.88
2023-05-19T13:30:39.968Z,4.63
2023-05-19T13:33:07.375Z,5.30
2023-05-19T13:35:38.135Z,3.53
2023-05-19T13:38:12.116Z,4.93
2023-05-19T13:40:40.814Z,3.50
2023-05-19T13:43:08.931Z,5.63
2023-05-19T13:45:36.788Z,2.28
2023-05-19T13:48:04.276Z,3.90
2023-05-19T13:50:31.497Z,2.92
2023-05-19T13:52:59.215Z,5.03
2023-05-19T13:55:27.590Z,3.80
2023-05-19T13:57:54.836Z,10.77
2023-05-19T14:00:23.695Z,4.75
2023-05-19T14:02:54.102Z,4.00
2023-05-19T14:05:21.381Z,3.95
2023-05-19T14:07:48.739Z,5.30
2023-05-19T14:10:15.796Z,4.43
2023-05-19T14:13:04.978Z,8.15
2023-05-19T14:15:32.643Z,6.47
2023-05-19T14:17:59.705Z,3.58
2023-05-19T14:20:29.153Z,4.25
2023-05-19T14:22:56.703Z,4.00
2023-05-19T14:25:23.806Z,5.38
2023-05-19T14:27:51.032Z,5.40
2023-05-19T14:30:18.037Z,7.43
2023-05-19T14:32:45.066Z,5.07
2023-05-19T14:35:13.820Z,3.92
2023-05-19T14:37:40.844Z,4.72
2023-05-19T14:40:08.706Z,4.53
2023-05-19T14:42:35.785Z,5.22
2023-05-19T14:45:02.966Z,6.03
2023-05-19T14:47:30.156Z,4.03
2023-05-19T14:49:57.547Z,4.80
2023-05-19T14:52:26.383Z,4.22
2023-05-19T14:55:00.758Z,5.30
2023-05-19T14:57:27.961Z,3.92
2023-05-19T14:59:55.260Z,5.65
2023-05-19T15:02:24.809Z,8.63
2023-05-19T15:04:52.131Z,4.90
2023-05-19T15:07:19.367Z,5.00
2023-05-19T15:09:46.611Z,5.25
2023-05-19T15:12:13.921Z,6.85
2023-05-19T15:14:41.218Z,10.30
2023-05-19T15:17:08.229Z,4.40
2023-05-19T15:19:35.586Z,11.20
2023-05-19T15:22:02.811Z,7.68
2023-05-19T15:24:29.910Z,6.70
2023-05-19T15:26:57.159Z,8.05
2023-05-19T15:29:24.404Z,4.72
2023-05-19T15:31:52.039Z,4.20
2023-05-19T15:34:20.315Z,7.38
2023-05-19T15:36:47.996Z,4.45
2023-05-19T15:39:15.350Z,5.70
2023-05-19T15:41:42.445Z,8.73
2023-05-19T15:44:11.935Z,6.35
2023-05-19T15:46:39.212Z,4.97
2023-05-19T15:49:06.658Z,6.72
2023-05-19T15:51:33.881Z,4.30
2023-05-19T15:54:01.218Z,6.28
2023-05-19T15:56:29.114Z,10.27
2023-05-19T15:58:56.362Z,6.68
2023-05-19T16:01:23.483Z,5.60
2023-05-19T16:03:50.995Z,7.38
2023-05-19T16:06:21.088Z,9.10
2023-05-19T16:08:48.103Z,9.70
2023-05-19T16:11:15.157Z,5.15
2023-05-19T16:13:44.808Z,8.82
2023-05-19T16:16:11.922Z,9.82
2023-05-19T16:18:44.607Z,10.63
2023-05-19T16:21:11.857Z,9.80
2023-05-19T16:23:39.232Z,7.45
2023-05-19T16:26:06.605Z,9.45
2023-05-19T16:28:33.663Z,8.40
2023-05-19T16:31:01.041Z,6.97
2023-05-19T16:33:29.226Z,6.93
2023-05-19T16:35:58.750Z,7.70
2023-05-19T16:38:26.800Z,9.25
2023-05-19T16:40:53.953Z,9.73
2023-05-19T16:43:21.430Z,6.47
2023-05-19T16:45:48.818Z,6.75
2023-05-19T16:48:15.897Z,7.13
2023-05-19T16:50:43.622Z,19.42
2023-05-19T16:53:10.972Z,11.27
2023-05-19T16:55:40.792Z,9.65
2023-05-19T16:58:09.253Z,13.02
2023-05-19T17:00:37.001Z,11.23
2023-05-19T17:03:04.955Z,11.75
2023-05-19T17:05:35.731Z,9.60
2023-05-19T17:08:02.978Z,11.77
2023-05-19T17:10:30.223Z,9.52
2023-05-19T17:12:57.527Z,12.38
2023-05-19T17:15:24.687Z,16.23
2023-05-19T17:17:52.789Z,6.30
2023-05-19T17:20:27.009Z,13.15
2023-05-19T17:22:57.944Z,8.48
2023-05-19T17:25:25.055Z,7.25
2023-05-19T17:27:52.616Z,12.93
2023-05-19T17:30:19.791Z,8.23
2023-05-19T17:32:47.234Z,10.85
2023-05-19T17:35:14.435Z,11.02
2023-05-19T17:37:42.103Z,8.93
2023-05-19T17:40:09.914Z,7.22
2023-05-19T17:42:36.931Z,8.25
2023-05-19T17:45:08.033Z,7.65
2023-05-19T17:47:35.214Z,7.60
2023-05-19T17:50:08.576Z,7.10
2023-05-19T17:52:36.413Z,9.20
2023-05-19T17:55:25.993Z,11.98
2023-05-19T17:57:58.359Z,8.73
2023-05-19T18:04:25.096Z,8.68
2023-05-19T18:07:08.861Z,14.70
2023-05-19T18:10:02.854Z,11.15
2023-05-19T18:12:35.443Z,8.85
2023-05-19T18:15:05.485Z,14.63
2023-05-19T18:17:32.644Z,15.55
2023-05-19T18:19:59.764Z,17.35
2023-05-19T18:22:30.138Z,10.48
2023-05-19T18:24:57.961Z,13.85
2023-05-19T18:27:25.601Z,9.27
2023-05-19T18:29:53.023Z,9.35
2023-05-19T18:32:20.968Z,11.85
2023-05-19T18:34:48.089Z,12.70
2023-05-19T18:37:15.309Z,15.55
2023-05-19T18:39:42.585Z,22.15
2023-05-19T18:42:11.004Z,14.15
2023-05-19T18:44:38.201Z,18.98
2023-05-19T18:47:05.346Z,17.90
2023-05-19T18:49:32.438Z,13.18
2023-05-19T18:51:59.667Z,9.23
2023-05-19T18:54:26.858Z,7.50
2023-05-19T18:56:54.580Z,8.27
2023-05-19T18:59:21.730Z,7.43
2023-05-19T19:01:48.963Z,9.70
2023-05-19T19:04:18.703Z,12.35
2023-05-19T19:06:46.969Z,9.70
2023-05-19T19:09:14.655Z,7.82
2023-05-19T19:11:41.925Z,8.10
2023-05-19T19:14:10.370Z,10.60
2023-05-19T19:16:38.127Z,8.68
2023-05-19T19:19:05.342Z,7.95
2023-05-19T19:21:32.739Z,9.43
2023-05-19T19:23:59.772Z,13.13
2023-05-19T19:26:29.126Z,10.73
2023-05-19T19:28:57.187Z,8.82
2023-05-19T19:31:26.042Z,7.75
2023-05-19T19:33:53.371Z,8.57
2023-05-19T19:36:20.689Z,10.05
2023-05-19T19:38:47.954Z,8.13
2023-05-19T19:41:15.236Z,12.52
2023-05-19T19:43:42.395Z,8.30
2023-05-19T19:46:09.928Z,7.80
2023-05-19T19:48:37.114Z,7.85
2023-05-19T19:51:04.305Z,11.43
2023-05-19T19:53:31.468Z,7.07
2023-05-19T19:56:02.066Z,7.78
2023-05-19T19:58:29.947Z,8.30
2023-05-19T20:01:03.963Z,8.77
2023-05-19T20:03:35.050Z,6.95
2023-05-19T20:06:02.644Z,10.75
2023-05-19T20:08:32.961Z,5.75
2023-05-19T20:11:00.849Z,9.18
2023-05-19T20:13:28.581Z,7.80
2023-05-19T20:15:57.451Z,9.30
2023-05-19T20:18:29.636Z,8.55
2023-05-19T20:20:57.456Z,8.75
2023-05-19T20:23:25.049Z,7.20
2023-05-19T20:26:10.032Z,8.60
2023-05-19T20:28:39.067Z,5.97
2023-05-19T20:31:06.945Z,8.68
2023-05-19T20:33:38.132Z,8.35
2023-05-19T20:36:08.227Z,7.23
2023-05-19T20:38:43.089Z,5.43
2023-05-19T20:43:45.402Z,5.82
2023-05-19T20:46:24.020Z,7.30
2023-05-19T20:48:51.922Z,9.88
2023-05-19T20:51:22.729Z,8.23
2023-05-19T20:54:03.323Z,5.15
2023-05-19T20:56:43.622Z,9.85
2023-05-19T20:59:14.875Z,7.88
2023-05-19T21:01:55.402Z,5.93
2023-05-19T21:04:27.895Z,6.63
2023-05-19T21:06:58.209Z,6.35
2023-05-19T21:09:42.286Z,4.90
2023-05-19T21:12:16.848Z,7.53
2023-05-19T21:14:44.277Z,8.85
2023-05-19T21:17:12.351Z,7.95
2023-05-19T21:19:39.920Z,10.38
2023-05-19T21:22:14.091Z,7.82
2023-05-19T21:24:47.043Z,6.85
2023-05-19T21:27:15.396Z,6.07
2023-05-19T21:29:46.484Z,9.70
2023-05-19T21:32:14.500Z,6.60
2023-05-19T21:34:45.760Z,5.53
2023-05-19T21:37:27.607Z,9.13
2023-05-19T21:40:09.689Z,4.97
2023-05-19T21:42:40.270Z,7.25
2023-05-19T21:45:14.103Z,6.22
2023-05-19T21:47:50.476Z,5.90
2023-05-19T21:50:18.408Z,7.40
2023-05-19T21:52:55.911Z,5.95
2023-05-19T21:55:24.293Z,6.32
2023-05-19T21:58:02.502Z,5.47
2023-05-19T22:00:31.315Z,4.93
2023-05-19T22:03:05.733Z,6.95
2023-05-19T22:05:35.638Z,4.73
2023-05-19T22:08:03.971Z,4.82
2023-05-19T22:10:35.794Z,8.20
2023-05-19T22:13:05.734Z,4.80
2023-05-19T22:15:33.687Z,6.53
2023-05-19T22:18:02.258Z,5.53
2023-05-19T22:20:29.750Z,3.72
2023-05-19T22:23:00.832Z,3.70
2023-05-19T22:25:29.121Z,11.07
2023-05-19T22:28:01.819Z,5.38
2023-05-19T22:30:32.470Z,5.60
2023-05-19T22:33:00.610Z,7.18
2023-05-19T22:35:28.405Z,7.03
2023-05-19T22:37:56.000Z,6.70
2023-05-19T22:40:24.526Z,5.75
2023-05-19T22:42:52.346Z,4.45
2023-05-19T22:45:19.991Z,6.25
2023-05-19T22:47:48.349Z,4.78
2023-05-19T22:50:17.997Z,4.93
2023-05-19T22:52:45.738Z,5.13
2023-05-19T22:55:13.085Z,3.28
2023-05-19T22:57:40.553Z,5.60
2023-05-19T23:00:11.590Z,8.18
2023-05-19T23:02:39.282Z,4.47
2023-05-19T23:05:07.360Z,5.68
2023-05-19T23:07:34.762Z,4.95
2023-05-19T23:10:06.433Z,6.72
2023-05-19T23:12:34.640Z,5.40
2023-05-19T23:15:03.335Z,4.95
2023-05-19T23:17:30.821Z,11.07
2023-05-19T23:20:02.156Z,7.15
2023-05-19T23:22:30.139Z,8.40
2023-05-19T23:24:59.094Z,5.03
2023-05-19T23:27:27.132Z,4.03
2023-05-19T23:29:55.091Z,6.25
2023-05-19T23:32:23.245Z,6.60
2023-05-19T23:34:53.052Z,7.30
2023-05-19T23:37:20.670Z,6.50
2023-05-19T23:39:48.501Z,7.95
2023-05-19T23:42:16.679Z,6.80
2023-05-19T23:44:44.080Z,8.95
2023-05-19T23:47:11.434Z,5.70
2023-05-19T23:49:39.112Z,6.30
2023-05-19T23:52:07.597Z,5.40
2023-05-19T23:54:35.100Z,5.50
2023-05-19T23:57:03.566Z,5.70
2023-05-19T23:59:31.214Z,5.22
